Terminal Aerodrome Forecast
Issued by NWS Duluth, MN

Home | Current Version | Previous Version | Text Only | Print | Product List | Glossary On
Versions: 1 2 3 4 5 6 7 8 9 10 11 12 13 14 15 16 17 18 19 20 21 22 23
000
FTUS43 KDLH 141219 AAB
TAFDLH
TAF AMD
KDLH 141219Z 1412/1512 11004KT 6SM -SHRA BR SCT008 OVC080
      TEMPO 1412/1415 3SM -SHRA BR OVC004
     FM141500 10005KT 5SM -SHRA BR BKN008 OVC015
     FM141700 10006KT 6SM -SHRA OVC012
     FM141900 10006KT P6SM VCSH BKN015 BKN035
     FM142200 12006KT P6SM BKN045
     FM150500 VRB03KT 5SM BR SCT120
     FM150900 00000KT 1SM BR BKN003=

USA.gov is the U.S. government's official web portal to all federal, state and local government web resources and services.